Gramado, Brazil
Current Conditions -  °F | °C
As of 5:00 PM on Friday 28 Nov 2014 (Local Time) from SBCO Reporting Station
Few Clouds Few Clouds  
Wind Chill: 81°   Ceiling: Unl
Heat Index: 81°   Visibility: 6mi
Dew Point: 61°   Wind: 15mph
Humidity: 51%   Direction: 130°SE
Pressure: 29.97"   Gusts: NA
Location:  29.37°S, 50.89°W
Report Text: SBCO 281900Z 13013KT 9999 FEW040 27/16 Q1015
Loading
Personal Weather Stations






























Interactive Weather Map New forecast layout! Learn more

10-Day Weather Forecast

Advertisements
Track Severe Weather on mobile